createdAt,value
2023-05-20T05:00:47.608Z,33.75
2023-05-20T05:01:47.597Z,33.75
2023-05-20T05:02:47.586Z,28.12
2023-05-20T05:03:47.524Z,28.12
2023-05-20T05:04:47.618Z,33.75
2023-05-20T05:05:47.502Z,33.75
2023-05-20T05:06:47.549Z,33.75
2023-05-20T05:07:47.483Z,39.38
2023-05-20T05:08:47.472Z,39.38
2023-05-20T05:09:47.481Z,39.38
2023-05-20T05:10:47.460Z,39.38
2023-05-20T05:11:52.470Z,39.38
2023-05-20T05:12:47.428Z,39.38
2023-05-20T05:13:47.415Z,45.00
2023-05-20T05:14:47.424Z,39.38
2023-05-20T05:15:47.425Z,39.38
2023-05-20T05:16:47.405Z,33.75
2023-05-20T05:17:47.446Z,33.75
2023-05-20T05:18:47.403Z,39.38
2023-05-20T05:19:47.373Z,39.38
2023-05-20T05:20:47.378Z,39.38
2023-05-20T05:21:47.323Z,39.38
2023-05-20T05:22:52.353Z,45.00
2023-05-20T05:23:47.306Z,45.00
2023-05-20T05:24:47.299Z,45.00
2023-05-20T05:25:47.312Z,45.00
2023-05-20T05:26:47.276Z,45.00
2023-05-20T05:27:47.255Z,45.00
2023-05-20T05:28:47.243Z,45.00
2023-05-20T05:29:47.248Z,50.62
2023-05-20T05:30:47.227Z,50.62
2023-05-20T05:31:47.232Z,50.62
2023-05-20T05:32:47.362Z,56.25
2023-05-20T05:33:52.216Z,56.25
2023-05-20T05:34:47.184Z,50.62
2023-05-20T05:35:47.165Z,50.62
2023-05-20T05:36:47.164Z,50.62
2023-05-20T05:37:47.155Z,56.25
2023-05-20T05:38:47.157Z,56.25
2023-05-20T05:39:47.134Z,61.88
2023-05-20T05:40:47.103Z,61.88
2023-05-20T05:41:47.094Z,67.50
2023-05-20T05:42:47.098Z,61.88
2023-05-20T05:43:47.084Z,78.75
2023-05-20T05:44:52.141Z,95.62
2023-05-20T05:45:47.053Z,95.62
2023-05-20T05:46:47.064Z,95.62
2023-05-20T05:47:47.067Z,95.62
2023-05-20T05:48:47.053Z,95.62
2023-05-20T05:49:47.017Z,95.62
2023-05-20T05:50:47.001Z,106.88
2023-05-20T05:51:46.984Z,106.88
2023-05-20T05:52:46.973Z,101.25
2023-05-20T05:53:46.970Z,106.88
2023-05-20T05:54:46.949Z,106.88
2023-05-20T05:55:51.960Z,106.88
2023-05-20T05:56:46.938Z,106.88
2023-05-20T05:57:46.924Z,112.50
2023-05-20T05:58:46.912Z,118.12
2023-05-20T05:59:46.896Z,123.75
2023-05-20T06:00:46.981Z,118.12
2023-05-20T06:01:46.940Z,118.12
2023-05-20T06:02:47.134Z,118.12
2023-05-20T06:03:46.982Z,118.12
2023-05-20T06:04:46.875Z,118.12
2023-05-20T06:05:46.827Z,129.38
2023-05-20T06:06:51.833Z,129.38
2023-05-20T06:07:46.824Z,135.00
2023-05-20T06:08:46.814Z,129.38
2023-05-20T06:09:46.779Z,123.75
2023-05-20T06:10:46.780Z,123.75
2023-05-20T06:11:46.771Z,129.38
2023-05-20T06:12:46.761Z,146.25
2023-05-20T06:13:46.739Z,123.75
2023-05-20T06:14:46.735Z,123.75
2023-05-20T06:15:46.713Z,118.12
2023-05-20T06:16:46.761Z,135.00
2023-05-20T06:17:51.724Z,123.75
2023-05-20T06:18:46.728Z,174.38
2023-05-20T06:19:46.662Z,174.38
2023-05-20T06:20:46.679Z,151.88
2023-05-20T06:21:46.697Z,151.88
2023-05-20T06:22:46.717Z,151.88
2023-05-20T06:23:46.623Z,185.62
2023-05-20T06:24:46.604Z,196.88
2023-05-20T06:25:46.614Z,168.75
2023-05-20T06:26:46.613Z,157.50
2023-05-20T06:27:46.586Z,157.50
2023-05-20T06:28:51.582Z,151.88
2023-05-20T06:29:46.548Z,140.62
2023-05-20T06:30:46.557Z,135.00
2023-05-20T06:31:46.531Z,123.75
2023-05-20T06:32:46.605Z,118.12
2023-05-20T06:33:46.511Z,123.75
2023-05-20T06:34:46.506Z,129.38
2023-05-20T06:35:46.496Z,135.00
2023-05-20T06:36:46.489Z,135.00
2023-05-20T06:37:46.482Z,140.62
2023-05-20T06:38:46.477Z,157.50
2023-05-20T06:39:51.474Z,163.12
2023-05-20T06:40:46.446Z,163.12
2023-05-20T06:41:46.416Z,168.75
2023-05-20T06:42:46.414Z,174.38
2023-05-20T06:43:46.393Z,180.00
2023-05-20T06:44:46.426Z,185.62
2023-05-20T06:45:46.374Z,191.25
2023-05-20T06:46:46.500Z,191.25
2023-05-20T06:47:46.397Z,208.12
2023-05-20T06:48:46.338Z,202.50
2023-05-20T06:49:47.669Z,196.88
2023-05-20T06:50:51.379Z,202.50
2023-05-20T06:51:46.301Z,196.88
2023-05-20T06:52:46.322Z,196.88
2023-05-20T06:53:46.292Z,208.12
2023-05-20T06:54:46.273Z,225.00
2023-05-20T06:55:46.260Z,213.75
2023-05-20T06:56:46.316Z,213.75
2023-05-20T06:57:46.244Z,213.75
2023-05-20T06:58:46.233Z,219.38
2023-05-20T06:59:46.212Z,213.75
2023-05-20T07:00:46.198Z,219.38
2023-05-20T07:01:51.261Z,213.75
2023-05-20T07:02:46.272Z,202.50
2023-05-20T07:03:46.279Z,202.50
2023-05-20T07:04:46.167Z,191.25
2023-05-20T07:05:46.141Z,196.88
2023-05-20T07:06:46.133Z,180.00
2023-05-20T07:07:46.152Z,174.38
2023-05-20T07:08:46.157Z,185.62
2023-05-20T07:09:46.100Z,185.62
2023-05-20T07:10:46.084Z,191.25
2023-05-20T07:11:46.079Z,196.88
2023-05-20T07:12:51.089Z,196.88
2023-05-20T07:13:46.059Z,185.62
2023-05-20T07:14:46.064Z,185.62
2023-05-20T07:15:46.060Z,174.38
2023-05-20T07:16:46.013Z,168.75
2023-05-20T07:17:46.022Z,180.00
2023-05-20T07:18:46.051Z,185.62
2023-05-20T07:19:45.981Z,185.62
2023-05-20T07:20:46.018Z,185.62
2023-05-20T07:21:45.978Z,191.25
2023-05-20T07:22:45.970Z,208.12
2023-05-20T07:23:50.985Z,225.00
2023-05-20T07:24:45.927Z,236.25
2023-05-20T07:25:45.916Z,247.50
2023-05-20T07:26:45.940Z,253.12
2023-05-20T07:27:45.916Z,253.12
2023-05-20T07:28:45.877Z,253.12
2023-05-20T07:29:45.863Z,253.12
2023-05-20T07:30:45.852Z,264.38
2023-05-20T07:31:45.921Z,258.75
2023-05-20T07:32:45.891Z,253.12
2023-05-20T07:33:45.843Z,247.50
2023-05-20T07:34:50.830Z,208.12
2023-05-20T07:35:45.812Z,202.50
2023-05-20T07:36:45.801Z,202.50
2023-05-20T07:37:45.788Z,202.50
2023-05-20T07:38:57.079Z,208.12
2023-05-20T07:39:45.800Z,202.50
2023-05-20T07:40:45.747Z,230.62
2023-05-20T07:41:45.744Z,236.25
2023-05-20T07:42:45.715Z,241.88
2023-05-20T07:43:45.818Z,236.25
2023-05-20T07:44:45.717Z,236.25
2023-05-20T07:45:50.745Z,219.38
2023-05-20T07:46:45.676Z,264.38
2023-05-20T07:47:45.782Z,286.88
2023-05-20T07:48:45.657Z,286.88
2023-05-20T07:49:45.654Z,292.50
2023-05-20T07:50:45.644Z,247.50
2023-05-20T07:51:45.646Z,247.50
2023-05-20T07:52:55.838Z,275.62
2023-05-20T07:53:45.615Z,264.38
2023-05-20T07:54:45.632Z,253.12
2023-05-20T07:55:45.600Z,292.50
2023-05-20T07:56:50.591Z,253.12
2023-05-20T07:57:45.556Z,196.88
2023-05-20T07:58:45.540Z,196.88
2023-05-20T07:59:45.568Z,196.88
2023-05-20T08:00:45.516Z,219.38
2023-05-20T08:01:45.506Z,180.00
2023-05-20T08:02:45.580Z,309.38
2023-05-20T08:03:45.582Z,365.62
2023-05-20T08:04:45.477Z,225.00
2023-05-20T08:05:45.492Z,157.50
2023-05-20T08:06:45.462Z,326.25
2023-05-20T08:07:50.466Z,326.25
2023-05-20T08:08:45.434Z,253.12
2023-05-20T08:09:45.429Z,180.00
2023-05-20T08:10:45.438Z,168.75
2023-05-20T08:11:47.311Z,275.62
2023-05-20T08:12:45.386Z,286.88
2023-05-20T08:13:45.386Z,163.12
2023-05-20T08:14:45.366Z,163.12
2023-05-20T08:15:45.347Z,264.38
2023-05-20T08:16:45.364Z,326.25
2023-05-20T08:17:45.381Z,219.38
2023-05-20T08:18:50.366Z,247.50
2023-05-20T08:19:45.311Z,213.75
2023-05-20T08:20:45.294Z,168.75
2023-05-20T08:21:45.283Z,174.38
2023-05-20T08:22:45.273Z,185.62
2023-05-20T08:23:45.286Z,258.75
2023-05-20T08:24:45.251Z,236.25
2023-05-20T08:25:45.231Z,185.62
2023-05-20T08:26:45.231Z,337.50
2023-05-20T08:27:45.249Z,258.75
2023-05-20T08:28:45.201Z,230.62
2023-05-20T08:29:50.272Z,264.38
2023-05-20T08:30:45.231Z,230.62
2023-05-20T08:31:45.163Z,309.38
2023-05-20T08:32:45.199Z,382.50
2023-05-20T08:33:45.148Z,213.75
2023-05-20T08:34:45.147Z,281.25
2023-05-20T08:35:45.142Z,191.25
2023-05-20T08:36:45.125Z,196.88
2023-05-20T08:37:45.105Z,281.25
2023-05-20T08:38:45.108Z,202.50
2023-05-20T08:39:45.072Z,483.75
2023-05-20T08:40:50.082Z,315.00
2023-05-20T08:41:45.086Z,365.62
2023-05-20T08:42:45.052Z,399.38
2023-05-20T08:43:45.083Z,725.62
2023-05-20T08:44:45.017Z,270.00
2023-05-20T08:45:45.003Z,202.50
2023-05-20T08:46:45.137Z,219.38
2023-05-20T08:47:45.070Z,303.75
2023-05-20T08:48:44.972Z,196.88
2023-05-20T08:49:44.964Z,208.12
2023-05-20T08:50:44.966Z,264.38
2023-05-20T08:51:49.969Z,624.38
2023-05-20T08:52:44.924Z,810.00
2023-05-20T08:53:44.930Z,1288.12
2023-05-20T08:54:44.905Z,2418.75
2023-05-20T08:55:44.904Z,1760.62
2023-05-20T08:56:44.919Z,1141.88
2023-05-20T08:57:44.907Z,2891.25
2023-05-20T08:58:44.861Z,455.62
2023-05-20T08:59:45.009Z,888.75
2023-05-20T09:00:44.856Z,450.00
2023-05-20T09:01:44.877Z,849.38
2023-05-20T09:02:49.859Z,1248.75
2023-05-20T09:03:44.804Z,2295.00
2023-05-20T09:04:44.821Z,2109.38
2023-05-20T09:05:44.810Z,427.50
2023-05-20T09:06:44.776Z,331.88
2023-05-20T09:07:44.762Z,213.75
2023-05-20T09:08:44.750Z,185.62
2023-05-20T09:09:44.774Z,196.88
2023-05-20T09:10:44.740Z,185.62
2023-05-20T09:11:44.752Z,180.00
2023-05-20T09:12:44.701Z,241.88
2023-05-20T09:13:49.715Z,444.38
2023-05-20T09:14:44.688Z,905.62
2023-05-20T09:15:44.693Z,523.12
2023-05-20T09:16:44.677Z,371.25
2023-05-20T09:17:44.691Z,196.88
2023-05-20T09:18:44.645Z,202.50
2023-05-20T09:19:44.633Z,219.38
2023-05-20T09:20:44.609Z,219.38
2023-05-20T09:21:44.603Z,241.88
2023-05-20T09:22:44.590Z,461.25
2023-05-20T09:23:44.620Z,1372.50
2023-05-20T09:24:49.662Z,1198.12
2023-05-20T09:25:44.557Z,1102.50
2023-05-20T09:26:44.550Z,528.75
2023-05-20T09:27:44.532Z,275.62
2023-05-20T09:28:44.525Z,511.88
2023-05-20T09:29:44.535Z,607.50
2023-05-20T09:30:45.987Z,298.12
2023-05-20T09:31:44.549Z,286.88
2023-05-20T09:32:44.492Z,298.12
2023-05-20T09:33:44.480Z,292.50
2023-05-20T09:34:44.452Z,253.12
2023-05-20T09:35:49.493Z,331.88
2023-05-20T09:36:44.427Z,348.75
2023-05-20T09:37:44.439Z,343.12
2023-05-20T09:38:44.415Z,292.50
2023-05-20T09:39:44.393Z,1935.00
2023-05-20T09:40:44.410Z,2171.25
2023-05-20T09:41:44.420Z,3504.38
2023-05-20T09:42:44.358Z,3324.38
2023-05-20T09:43:44.383Z,793.12
2023-05-20T09:44:44.344Z,3138.75
2023-05-20T09:45:44.334Z,444.38
2023-05-20T09:46:49.360Z,421.88
2023-05-20T09:47:44.393Z,1260.00
2023-05-20T09:48:44.327Z,1378.12
2023-05-20T09:49:44.285Z,444.38
2023-05-20T09:50:44.318Z,967.50
2023-05-20T09:51:44.258Z,697.50
2023-05-20T09:52:44.263Z,1243.12
2023-05-20T09:53:44.289Z,669.38
2023-05-20T09:54:44.230Z,798.75
2023-05-20T09:55:44.208Z,1451.25
2023-05-20T09:56:44.203Z,691.88
2023-05-20T09:57:44.202Z,500.62
2023-05-20T09:58:44.184Z,399.38
2023-05-20T09:59:49.239Z,348.75
2023-05-20T10:00:44.175Z,354.38
2023-05-20T10:01:44.176Z,331.88
2023-05-20T10:02:44.258Z,303.75
2023-05-20T10:03:44.555Z,286.88
2023-05-20T10:04:44.119Z,315.00
2023-05-20T10:05:44.102Z,388.12
2023-05-20T10:06:44.132Z,382.50
2023-05-20T10:07:44.105Z,472.50
2023-05-20T10:08:44.071Z,393.75
2023-05-20T10:09:44.061Z,337.50
2023-05-20T10:10:49.069Z,388.12
2023-05-20T10:11:44.071Z,320.62
2023-05-20T10:12:44.078Z,286.88
2023-05-20T10:13:44.021Z,388.12
2023-05-20T10:14:44.001Z,298.12
2023-05-20T10:15:44.018Z,343.12
2023-05-20T10:16:43.996Z,281.25
2023-05-20T10:17:43.993Z,270.00
2023-05-20T10:18:44.025Z,247.50
2023-05-20T10:19:43.945Z,247.50
2023-05-20T10:20:43.947Z,433.12
2023-05-20T10:21:48.957Z,466.88
2023-05-20T10:22:43.941Z,405.00
2023-05-20T10:23:43.900Z,675.00
2023-05-20T10:24:43.970Z,360.00
2023-05-20T10:25:43.894Z,326.25
2023-05-20T10:26:43.869Z,343.12
2023-05-20T10:27:43.858Z,281.25
2023-05-20T10:28:43.845Z,275.62
2023-05-20T10:29:43.846Z,286.88
2023-05-20T10:30:44.530Z,388.12
2023-05-20T10:31:43.827Z,365.62
2023-05-20T10:32:48.879Z,483.75
2023-05-20T10:33:43.810Z,331.88
2023-05-20T10:34:43.798Z,393.75
2023-05-20T10:35:43.787Z,309.38
2023-05-20T10:36:43.809Z,292.50
2023-05-20T10:37:43.746Z,281.25
2023-05-20T10:38:43.730Z,343.12
2023-05-20T10:39:43.722Z,601.88
2023-05-20T10:40:43.720Z,286.88
2023-05-20T10:41:43.696Z,286.88
2023-05-20T10:42:43.731Z,1845.00
2023-05-20T10:43:48.694Z,939.38
2023-05-20T10:44:43.681Z,523.12
2023-05-20T10:45:43.667Z,1113.75
2023-05-20T10:47:43.687Z,1569.38
2023-05-20T10:48:43.740Z,2413.12
2023-05-20T10:49:43.614Z,2520.00
2023-05-20T10:50:43.618Z,1293.75
2023-05-20T10:51:43.584Z,1310.62
2023-05-20T10:52:43.571Z,433.12
2023-05-20T10:53:43.566Z,506.25
2023-05-20T10:54:51.492Z,427.50
2023-05-20T10:55:43.533Z,438.75
2023-05-20T10:56:43.525Z,438.75
2023-05-20T10:57:43.523Z,444.38
2023-05-20T10:58:43.511Z,500.62
2023-05-20T10:59:43.497Z,478.12
2023-05-20T11:00:43.580Z,483.75
2023-05-20T11:01:43.493Z,478.12
2023-05-20T11:02:43.577Z,433.12
2023-05-20T11:03:43.599Z,568.12
2023-05-20T11:04:43.445Z,956.25
2023-05-20T11:05:48.467Z,2413.12
2023-05-20T11:06:43.462Z,1918.12
2023-05-20T11:07:43.406Z,438.75
2023-05-20T11:08:43.415Z,376.88
2023-05-20T11:09:43.378Z,1985.62
2023-05-20T11:10:43.373Z,3313.12
2023-05-20T11:11:43.355Z,3296.25
2023-05-20T11:12:43.456Z,3420.00
2023-05-20T11:13:43.362Z,3560.62
2023-05-20T11:14:43.324Z,2278.12
2023-05-20T11:15:43.318Z,2964.38
2023-05-20T11:16:48.343Z,2975.62
2023-05-20T11:17:43.349Z,3369.38
2023-05-20T11:18:43.464Z,472.50
2023-05-20T11:19:43.272Z,410.62
2023-05-20T11:20:43.262Z,573.75
2023-05-20T11:21:43.269Z,495.00
2023-05-20T11:22:43.249Z,1366.88
2023-05-20T11:23:43.224Z,506.25
2023-05-20T11:24:43.262Z,416.25
2023-05-20T11:25:43.229Z,618.75
2023-05-20T11:26:43.200Z,326.25
2023-05-20T11:27:43.191Z,281.25
2023-05-20T11:28:43.174Z,258.75
2023-05-20T11:29:48.196Z,275.62
2023-05-20T11:30:43.336Z,343.12
2023-05-20T11:31:43.219Z,371.25
2023-05-20T11:32:43.190Z,455.62
2023-05-20T11:33:43.113Z,517.50
2023-05-20T11:34:43.105Z,410.62
2023-05-20T11:35:43.233Z,489.38
2023-05-20T11:36:43.095Z,444.38
2023-05-20T11:37:43.094Z,292.50
2023-05-20T11:38:43.160Z,275.62
2023-05-20T11:39:43.053Z,281.25
2023-05-20T11:40:50.389Z,331.88
2023-05-20T11:41:43.035Z,573.75
2023-05-20T11:42:48.040Z,995.62
2023-05-20T11:43:43.039Z,787.50
2023-05-20T11:44:43.053Z,579.38
2023-05-20T11:45:42.985Z,675.00
2023-05-20T11:46:43.061Z,855.00
2023-05-20T11:47:43.009Z,731.25
2023-05-20T11:48:42.956Z,900.00
2023-05-20T11:49:42.941Z,928.12
2023-05-20T11:50:42.974Z,298.12
2023-05-20T11:51:42.913Z,281.25
2023-05-20T11:52:42.906Z,388.12
2023-05-20T11:53:47.936Z,343.12
2023-05-20T11:54:42.892Z,315.00
2023-05-20T11:55:42.886Z,376.88
2023-05-20T11:56:42.891Z,3448.12
2023-05-20T11:57:42.852Z,3476.25
2023-05-20T11:58:42.849Z,3425.62
2023-05-20T11:59:42.853Z,585.00
2023-05-20T12:00:51.313Z,320.62
2023-05-20T12:01:42.837Z,326.25
2023-05-20T12:02:42.921Z,376.88
2023-05-20T12:03:42.940Z,652.50
2023-05-20T12:04:47.831Z,1063.12
2023-05-20T12:05:42.773Z,658.12
2023-05-20T12:06:42.745Z,2947.50
2023-05-20T12:07:42.760Z,703.12
2023-05-20T12:08:42.756Z,556.88
2023-05-20T12:09:42.743Z,427.50
2023-05-20T12:10:42.708Z,309.38
2023-05-20T12:11:42.704Z,360.00
2023-05-20T12:12:42.680Z,472.50
2023-05-20T12:13:42.665Z,2981.25
2023-05-20T12:14:42.719Z,1856.25
2023-05-20T12:15:47.680Z,2424.38
2023-05-20T12:16:42.659Z,2835.00
2023-05-20T12:17:42.661Z,939.38
2023-05-20T12:18:42.648Z,3251.25
2023-05-20T12:19:42.632Z,3206.25
2023-05-20T12:20:42.658Z,2970.00
2023-05-20T12:21:42.597Z,1912.50
2023-05-20T12:22:42.568Z,675.00
2023-05-20T12:23:42.561Z,360.00
2023-05-20T12:24:42.553Z,331.88
2023-05-20T12:25:42.554Z,421.88
2023-05-20T12:26:42.577Z,472.50
2023-05-20T12:27:42.512Z,450.00
2023-05-20T12:28:47.542Z,371.25
2023-05-20T12:29:42.513Z,281.25
2023-05-20T12:30:42.520Z,270.00
2023-05-20T12:31:42.535Z,309.38
2023-05-20T12:32:42.592Z,331.88
2023-05-20T12:33:42.450Z,416.25
2023-05-20T12:34:42.431Z,444.38
2023-05-20T12:35:42.422Z,303.75
2023-05-20T12:36:42.411Z,213.75
2023-05-20T12:37:42.409Z,185.62
2023-05-20T12:38:42.469Z,174.38
2023-05-20T12:39:42.374Z,208.12
2023-05-20T12:40:42.365Z,236.25
2023-05-20T12:41:47.395Z,286.88
2023-05-20T12:42:42.369Z,343.12
2023-05-20T12:43:42.329Z,354.38
2023-05-20T12:44:42.355Z,348.75
2023-05-20T12:45:42.379Z,292.50
2023-05-20T12:46:42.334Z,298.12
2023-05-20T12:47:42.302Z,241.88
2023-05-20T12:48:42.808Z,236.25
2023-05-20T12:49:42.269Z,191.25
2023-05-20T12:50:42.294Z,146.25
2023-05-20T12:51:42.265Z,151.88
2023-05-20T12:52:47.282Z,146.25
2023-05-20T12:53:42.215Z,135.00
2023-05-20T12:54:42.210Z,163.12
2023-05-20T12:55:42.196Z,151.88
2023-05-20T12:56:42.231Z,151.88
2023-05-20T12:57:42.197Z,168.75
2023-05-20T12:58:42.179Z,196.88
2023-05-20T12:59:42.147Z,225.00
2023-05-20T13:00:42.168Z,270.00
2023-05-20T13:01:42.207Z,275.62
2023-05-20T13:02:42.282Z,275.62
2023-05-20T13:03:47.162Z,298.12
2023-05-20T13:04:42.099Z,315.00
2023-05-20T13:05:42.095Z,303.75
2023-05-20T13:06:42.092Z,298.12
2023-05-20T13:07:42.073Z,298.12
2023-05-20T13:08:42.049Z,303.75
2023-05-20T13:09:42.064Z,388.12
2023-05-20T13:10:42.048Z,399.38
2023-05-20T13:11:42.016Z,376.88
2023-05-20T13:12:42.012Z,337.50
2023-05-20T13:13:42.013Z,315.00
2023-05-20T13:14:47.009Z,303.75
2023-05-20T13:15:42.013Z,309.38
2023-05-20T13:16:42.015Z,331.88
2023-05-20T13:17:41.987Z,303.75
2023-05-20T13:18:41.973Z,286.88
2023-05-20T13:19:41.939Z,275.62
2023-05-20T13:20:41.926Z,292.50
2023-05-20T13:21:41.933Z,247.50
2023-05-20T13:22:41.896Z,247.50
2023-05-20T13:23:41.893Z,298.12
2023-05-20T13:24:41.899Z,298.12
2023-05-20T13:25:46.892Z,247.50
2023-05-20T13:26:41.850Z,264.38
2023-05-20T13:27:41.866Z,320.62
2023-05-20T13:28:41.838Z,348.75
2023-05-20T13:29:41.862Z,315.00
2023-05-20T13:30:41.946Z,315.00
2023-05-20T13:31:41.793Z,281.25
2023-05-20T13:32:41.841Z,298.12
2023-05-20T13:33:41.805Z,281.25
2023-05-20T13:34:41.771Z,241.88
2023-05-20T13:35:41.753Z,236.25
2023-05-20T13:36:46.774Z,202.50
2023-05-20T13:37:41.729Z,191.25
2023-05-20T13:38:41.730Z,196.88
2023-05-20T13:39:41.757Z,196.88
2023-05-20T13:40:41.705Z,225.00
2023-05-20T13:41:41.687Z,270.00
2023-05-20T13:42:41.701Z,292.50
2023-05-20T13:43:41.668Z,286.88
2023-05-20T13:44:41.648Z,270.00
2023-05-20T13:45:41.671Z,253.12
2023-05-20T13:46:41.749Z,264.38
2023-05-20T13:47:46.674Z,258.75
2023-05-20T13:48:41.611Z,253.12
2023-05-20T13:49:41.597Z,253.12
2023-05-20T13:50:41.585Z,253.12
2023-05-20T13:51:41.606Z,258.75
2023-05-20T13:52:41.555Z,264.38
2023-05-20T13:53:41.558Z,275.62
2023-05-20T13:54:41.538Z,270.00
2023-05-20T13:55:41.538Z,230.62
2023-05-20T13:56:41.510Z,241.88
2023-05-20T13:57:41.730Z,281.25
2023-05-20T13:58:46.541Z,264.38
2023-05-20T13:59:41.473Z,275.62
2023-05-20T14:00:41.461Z,286.88
2023-05-20T14:01:41.564Z,303.75
2023-05-20T14:02:41.561Z,213.75
2023-05-20T14:03:41.590Z,202.50
2023-05-20T14:04:41.419Z,213.75
2023-05-20T14:05:41.422Z,180.00
2023-05-20T14:06:41.403Z,185.62
2023-05-20T14:07:41.412Z,191.25
2023-05-20T14:08:41.379Z,185.62
2023-05-20T14:09:46.411Z,196.88
2023-05-20T14:10:41.379Z,241.88
2023-05-20T14:11:41.381Z,230.62
2023-05-20T14:12:41.341Z,208.12
2023-05-20T14:13:41.328Z,219.38
2023-05-20T14:14:41.309Z,253.12
2023-05-20T14:15:41.332Z,202.50
2023-05-20T14:16:41.336Z,185.62
2023-05-20T14:17:41.325Z,180.00
2023-05-20T14:18:41.287Z,202.50
2023-05-20T14:19:41.310Z,213.75
2023-05-20T14:20:46.274Z,208.12
2023-05-20T14:21:41.263Z,213.75
2023-05-20T14:22:41.367Z,219.38
2023-05-20T14:23:41.225Z,202.50
2023-05-20T14:24:41.202Z,191.25
2023-05-20T14:25:41.192Z,196.88
2023-05-20T14:26:41.194Z,219.38
2023-05-20T14:27:41.166Z,225.00
2023-05-20T14:28:41.150Z,241.88
2023-05-20T14:29:41.179Z,264.38
2023-05-20T14:30:41.151Z,264.38
2023-05-20T14:31:46.146Z,258.75
2023-05-20T14:32:41.212Z,236.25
2023-05-20T14:33:41.119Z,213.75
2023-05-20T14:34:41.196Z,196.88
2023-05-20T14:35:41.146Z,180.00
2023-05-20T14:36:41.070Z,196.88
2023-05-20T14:37:41.052Z,202.50
2023-05-20T14:38:41.049Z,208.12
2023-05-20T14:39:41.068Z,208.12
2023-05-20T14:40:41.025Z,225.00
2023-05-20T14:41:41.038Z,225.00
2023-05-20T14:42:46.020Z,213.75
2023-05-20T14:43:41.000Z,196.88
2023-05-20T14:44:40.988Z,196.88
2023-05-20T14:45:40.970Z,208.12
2023-05-20T14:46:41.012Z,241.88
2023-05-20T14:47:40.993Z,241.88
2023-05-20T14:48:40.931Z,236.25
2023-05-20T14:49:40.962Z,236.25
2023-05-20T14:50:40.919Z,225.00
2023-05-20T14:51:40.892Z,219.38
2023-05-20T14:52:40.899Z,208.12
2023-05-20T14:53:45.930Z,213.75
2023-05-20T14:54:40.890Z,202.50
2023-05-20T14:55:40.853Z,208.12
2023-05-20T14:56:40.850Z,196.88
2023-05-20T14:57:40.833Z,180.00
2023-05-20T14:58:40.826Z,202.50
2023-05-20T14:59:40.835Z,191.25
2023-05-20T15:00:40.863Z,180.00
2023-05-20T15:01:40.809Z,185.62
2023-05-20T15:02:40.849Z,174.38
2023-05-20T15:03:40.858Z,174.38
2023-05-20T15:04:45.793Z,174.38
2023-05-20T15:05:40.776Z,168.75
2023-05-20T15:06:40.724Z,174.38
2023-05-20T15:07:40.734Z,174.38
2023-05-20T15:08:40.710Z,174.38
2023-05-20T15:09:40.705Z,168.75
2023-05-20T15:10:40.681Z,174.38
2023-05-20T15:11:40.706Z,174.38
2023-05-20T15:12:40.665Z,174.38
2023-05-20T15:13:40.645Z,174.38
2023-05-20T15:14:40.646Z,180.00
2023-05-20T15:15:45.651Z,174.38
2023-05-20T15:16:40.634Z,174.38
2023-05-20T15:17:40.660Z,180.00
2023-05-20T15:18:40.612Z,180.00
2023-05-20T15:19:41.569Z,180.00
2023-05-20T15:20:40.806Z,180.00
2023-05-20T15:21:40.575Z,180.00
2023-05-20T15:22:40.562Z,180.00
2023-05-20T15:23:40.556Z,180.00
2023-05-20T15:24:40.563Z,180.00
2023-05-20T15:25:40.520Z,174.38
2023-05-20T15:26:45.547Z,174.38
2023-05-20T15:27:40.495Z,168.75
2023-05-20T15:28:40.490Z,174.38
2023-05-20T15:29:41.000Z,180.00
2023-05-20T15:30:40.474Z,191.25
2023-05-20T15:31:40.460Z,163.12
2023-05-20T15:32:40.522Z,174.38
2023-05-20T15:33:40.591Z,174.38
2023-05-20T15:34:40.418Z,157.50
2023-05-20T15:35:40.430Z,151.88
2023-05-20T15:36:40.452Z,146.25
2023-05-20T15:37:45.409Z,151.88
2023-05-20T15:38:40.378Z,146.25
2023-05-20T15:39:40.365Z,140.62
2023-05-20T15:40:40.356Z,140.62
2023-05-20T15:41:40.706Z,135.00
2023-05-20T15:42:40.324Z,135.00
2023-05-20T15:43:40.322Z,129.38
2023-05-20T15:44:40.304Z,129.38
2023-05-20T15:45:40.300Z,129.38
2023-05-20T15:46:40.418Z,123.75
2023-05-20T15:47:40.950Z,118.12
2023-05-20T15:48:45.284Z,118.12
2023-05-20T15:49:40.256Z,118.12
2023-05-20T15:50:40.309Z,118.12
2023-05-20T15:51:42.612Z,112.50
2023-05-20T15:52:40.301Z,106.88
2023-05-20T15:53:40.897Z,101.25
2023-05-20T15:54:40.199Z,90.00
2023-05-20T15:55:41.137Z,84.38
2023-05-20T15:56:40.178Z,78.75
2023-05-20T15:57:40.190Z,73.12
2023-05-20T15:58:40.146Z,78.75
2023-05-20T15:59:45.196Z,73.12
2023-05-20T16:00:40.126Z,73.12
2023-05-20T16:01:40.421Z,73.12
2023-05-20T16:02:40.392Z,73.12
2023-05-20T16:03:40.182Z,73.12
2023-05-20T16:04:40.097Z,73.12
2023-05-20T16:05:40.107Z,73.12
2023-05-20T16:06:40.059Z,78.75
2023-05-20T16:07:40.045Z,73.12
2023-05-20T16:08:40.066Z,78.75
2023-05-20T16:09:40.043Z,78.75
2023-05-20T16:10:45.032Z,84.38
2023-05-20T16:11:40.052Z,78.75
2023-05-20T16:12:39.990Z,78.75
2023-05-20T16:13:39.997Z,73.12
2023-05-20T16:14:39.981Z,67.50
2023-05-20T16:15:40.005Z,67.50
2023-05-20T16:16:40.063Z,73.12
2023-05-20T16:17:39.985Z,73.12
2023-05-20T16:18:40.013Z,78.75
2023-05-20T16:19:39.956Z,78.75
2023-05-20T16:20:39.933Z,78.75
2023-05-20T16:21:44.912Z,84.38
2023-05-20T16:22:39.892Z,90.00
2023-05-20T16:23:39.909Z,95.62
2023-05-20T16:24:39.880Z,90.00
2023-05-20T16:25:39.849Z,95.62
2023-05-20T16:26:39.843Z,95.62
2023-05-20T16:27:39.834Z,95.62
2023-05-20T16:28:39.834Z,95.62
2023-05-20T16:29:39.881Z,106.88
2023-05-20T16:30:39.789Z,112.50
2023-05-20T16:31:39.796Z,112.50
2023-05-20T16:32:44.836Z,112.50
2023-05-20T16:33:39.754Z,129.38
2023-05-20T16:34:39.750Z,123.75
2023-05-20T16:35:39.785Z,123.75
2023-05-20T16:36:39.759Z,101.25
2023-05-20T16:37:39.736Z,101.25
2023-05-20T16:38:39.702Z,106.88
2023-05-20T16:39:39.699Z,101.25
2023-05-20T16:40:39.704Z,112.50
2023-05-20T16:41:39.774Z,101.25
2023-05-20T16:42:39.660Z,106.88
2023-05-20T16:43:44.684Z,101.25
2023-05-20T16:44:39.632Z,101.25
2023-05-20T16:45:39.635Z,101.25
2023-05-20T16:46:39.622Z,90.00
2023-05-20T16:47:39.680Z,90.00
2023-05-20T16:48:39.595Z,90.00
2023-05-20T16:49:39.585Z,78.75
2023-05-20T16:50:39.565Z,84.38
2023-05-20T16:51:39.569Z,90.00
2023-05-20T16:52:39.589Z,90.00
2023-05-20T16:53:39.625Z,84.38
2023-05-20T16:54:44.539Z,78.75
2023-05-20T16:55:39.513Z,84.38
2023-05-20T16:56:39.534Z,84.38
2023-05-20T16:57:39.493Z,95.62
2023-05-20T16:58:39.484Z,106.88
2023-05-20T16:59:39.490Z,106.88
2023-05-20T17:00:39.475Z,106.88
2023-05-20T17:01:39.522Z,118.12
2023-05-20T17:02:39.466Z,101.25
2023-05-20T17:03:39.420Z,112.50
2023-05-20T17:04:39.483Z,123.75
2023-05-20T17:05:44.493Z,123.75
2023-05-20T17:06:39.386Z,112.50
2023-05-20T17:07:39.377Z,112.50
2023-05-20T17:08:39.364Z,106.88
2023-05-20T17:09:39.355Z,112.50
2023-05-20T17:10:39.348Z,106.88
2023-05-20T17:11:39.365Z,101.25
2023-05-20T17:12:39.340Z,84.38
2023-05-20T17:13:39.315Z,95.62
2023-05-20T17:14:39.307Z,84.38
2023-05-20T17:15:39.301Z,78.75
2023-05-20T17:16:44.368Z,84.38
2023-05-20T17:17:39.349Z,78.75
2023-05-20T17:18:39.251Z,73.12
2023-05-20T17:19:39.252Z,73.12
2023-05-20T17:20:39.228Z,61.88
2023-05-20T17:21:39.228Z,61.88
2023-05-20T17:22:39.208Z,56.25
2023-05-20T17:23:39.231Z,50.62
2023-05-20T17:24:39.200Z,61.88
2023-05-20T17:25:39.178Z,50.62
2023-05-20T17:26:39.167Z,45.00
2023-05-20T17:27:44.190Z,56.25
2023-05-20T17:28:39.141Z,56.25
2023-05-20T17:29:39.187Z,61.88
2023-05-20T17:30:39.119Z,56.25
2023-05-20T17:31:39.108Z,50.62